createdAt,value
2023-04-25T06:09:34.749Z,13.89
2023-04-25T06:12:20.386Z,14.11
2023-04-25T06:15:23.843Z,14.24
2023-04-25T06:18:12.302Z,14.27
2023-04-25T06:20:58.397Z,14.39
2023-04-25T06:23:44.535Z,14.42
2023-04-25T06:26:35.351Z,14.47
2023-04-25T06:29:27.803Z,14.52
2023-04-25T06:32:18.472Z,14.57
2023-04-25T06:35:06.579Z,14.53
2023-04-25T06:37:53.703Z,14.54
2023-04-25T06:40:42.736Z,14.46
2023-04-25T06:43:33.350Z,14.49
2023-04-25T06:46:27.233Z,14.59
2023-04-25T06:49:13.357Z,14.63
2023-04-25T06:52:01.267Z,14.63
2023-04-25T06:54:53.144Z,14.73
2023-04-25T06:58:00.652Z,14.76
2023-04-25T07:01:07.777Z,14.78
2023-04-25T07:04:10.672Z,14.76
2023-04-25T07:07:03.306Z,14.70
2023-04-25T07:09:55.573Z,14.76
2023-04-25T07:12:49.681Z,14.92
2023-04-25T07:19:02.342Z,15.38
2023-04-25T07:21:55.256Z,15.41
2023-04-25T07:24:41.409Z,15.44
2023-04-25T07:27:37.679Z,15.46
2023-04-25T07:30:31.622Z,15.36
2023-04-25T07:33:23.948Z,15.33
2023-04-25T07:36:20.259Z,15.31
2023-04-25T07:39:05.767Z,15.25
2023-04-25T07:41:55.027Z,15.25
2023-04-25T07:44:53.102Z,15.25
2023-04-25T07:47:40.344Z,15.26
2023-04-25T07:50:26.857Z,15.38
2023-04-25T07:53:12.555Z,15.42
2023-04-25T07:56:05.665Z,15.46
2023-04-25T07:58:53.599Z,15.51
2023-04-25T08:01:40.386Z,15.53
2023-04-25T08:04:42.310Z,15.48
2023-04-25T08:07:30.030Z,15.68
2023-04-25T08:10:16.918Z,15.83
2023-04-25T08:13:03.899Z,15.91
2023-04-25T08:15:51.352Z,16.06
2023-04-25T08:18:37.976Z,16.22
2023-04-25T08:21:38.295Z,16.24
2023-04-25T08:24:26.234Z,16.13
2023-04-25T08:27:15.453Z,16.09
2023-04-25T08:30:03.866Z,16.14
2023-04-25T08:32:50.140Z,16.11
2023-04-25T08:35:55.062Z,16.22
2023-04-25T08:38:40.377Z,16.27
2023-04-25T08:41:28.393Z,16.31
2023-04-25T08:44:16.296Z,16.28
2023-04-25T08:47:05.491Z,16.16
2023-04-25T08:56:48.194Z,16.27
2023-04-25T08:59:36.127Z,16.45
2023-04-25T09:02:25.256Z,16.58
2023-04-25T09:05:21.620Z,16.79
2023-04-25T09:08:37.385Z,16.98
2023-04-25T09:11:31.987Z,16.97
2023-04-25T09:14:28.301Z,17.11
2023-04-25T09:18:04.155Z,17.05
2023-04-25T09:21:26.408Z,16.75
2023-04-25T09:24:13.053Z,16.63
2023-04-25T09:27:09.708Z,16.60
2023-04-25T09:30:32.911Z,16.71
2023-04-25T09:33:48.936Z,16.73
2023-04-25T09:36:50.136Z,16.54
2023-04-25T09:39:47.595Z,16.39
2023-04-25T09:42:42.116Z,16.21
2023-04-25T09:45:31.720Z,16.26
2023-04-25T09:48:24.581Z,16.58
2023-04-25T09:51:14.990Z,16.82
2023-04-25T09:54:31.586Z,17.19
2023-04-25T09:57:50.082Z,17.32
2023-04-25T10:01:11.050Z,17.28
2023-04-25T10:04:09.845Z,17.29
2023-04-25T10:07:13.760Z,17.21
2023-04-25T10:10:28.174Z,17.11
2023-04-25T10:13:15.723Z,17.26
2023-04-25T10:16:06.815Z,17.40
2023-04-25T10:18:59.502Z,17.62
2023-04-25T10:22:42.514Z,17.78
2023-04-25T10:32:04.956Z,18.00
2023-04-25T10:35:46.611Z,17.93
2023-04-25T10:39:53.186Z,17.99
2023-04-25T10:42:41.195Z,18.11
2023-04-25T10:51:47.400Z,18.10
2023-04-25T10:54:58.663Z,18.20
2023-04-25T10:58:13.073Z,18.28
2023-04-25T11:00:59.579Z,18.42
2023-04-25T11:04:01.178Z,18.57
2023-04-25T11:10:18.336Z,18.66
2023-04-25T11:13:05.317Z,18.67
2023-04-25T11:16:03.133Z,18.71
2023-04-25T11:19:01.493Z,18.70
2023-04-25T11:22:17.828Z,18.80
2023-04-25T11:25:08.459Z,18.93
2023-04-25T11:27:59.683Z,18.97
2023-04-25T11:30:52.769Z,19.02
2023-04-25T11:33:38.759Z,19.09
2023-04-25T11:36:26.346Z,19.21
2023-04-25T11:39:25.343Z,19.35
2023-04-25T11:42:12.116Z,19.45
2023-04-25T11:45:01.367Z,19.26
2023-04-25T11:47:47.543Z,19.06
2023-04-25T11:51:07.257Z,19.19
2023-04-25T12:04:18.645Z,19.67
2023-04-25T12:07:04.876Z,19.73
2023-04-25T12:09:53.775Z,19.72
2023-04-25T12:12:44.397Z,19.87
2023-04-25T12:15:30.061Z,19.96
2023-04-25T12:18:25.712Z,20.10
2023-04-25T12:21:17.711Z,20.19
2023-04-25T12:24:39.505Z,20.30
2023-04-25T12:27:26.458Z,20.51
2023-04-25T12:30:32.887Z,20.88
2023-04-25T12:33:18.665Z,21.17
2023-04-25T12:36:09.877Z,21.28
2023-04-25T12:38:55.482Z,21.27
2023-04-25T12:41:43.676Z,21.20
2023-04-25T12:44:34.548Z,20.97
2023-04-25T12:47:22.373Z,20.94
2023-04-25T12:50:10.983Z,21.03
2023-04-25T12:52:56.763Z,20.97
2023-04-25T12:55:50.386Z,21.28
2023-04-25T12:58:36.165Z,21.30
2023-04-25T13:01:22.669Z,20.90
2023-04-25T13:04:09.882Z,20.60
2023-04-25T13:06:56.086Z,20.44
2023-04-25T13:09:41.785Z,20.32
2023-04-25T13:12:27.404Z,20.29
2023-04-25T13:15:12.932Z,20.07
2023-04-25T13:17:58.516Z,19.78
2023-04-25T13:20:52.383Z,19.42
2023-04-25T13:23:52.206Z,19.32
2023-04-25T13:27:26.315Z,19.54
2023-04-25T13:30:12.328Z,19.33
2023-04-25T13:33:03.489Z,19.00
2023-04-25T13:35:58.967Z,18.80
2023-04-25T13:38:45.486Z,18.62
2023-04-25T13:41:31.139Z,18.35
2023-04-25T13:44:16.859Z,18.21
2023-04-25T13:47:03.247Z,17.94
2023-04-25T13:49:48.581Z,17.65
2023-04-25T13:52:34.638Z,17.64
2023-04-25T13:55:20.201Z,17.51
2023-04-25T13:58:08.095Z,17.47
2023-04-25T14:00:54.253Z,17.39
2023-04-25T14:03:48.389Z,17.27
2023-04-25T14:06:43.663Z,17.16
2023-04-25T14:09:29.888Z,17.07
2023-04-25T14:12:16.323Z,17.02
2023-04-25T14:15:02.744Z,16.92
2023-04-25T14:17:48.862Z,16.89
2023-04-25T14:20:35.031Z,16.77
2023-04-25T14:23:20.824Z,16.66
2023-04-25T14:26:06.462Z,16.51
2023-04-25T14:28:52.628Z,16.37
2023-04-25T14:31:39.849Z,16.15
2023-04-25T14:34:39.634Z,16.01
2023-04-25T14:37:26.218Z,15.94
2023-04-25T14:40:13.590Z,15.88
2023-04-25T14:42:59.212Z,15.89
2023-04-25T14:45:45.213Z,15.95
2023-04-25T14:48:30.901Z,15.92
2023-04-25T14:51:19.242Z,15.89
2023-04-25T14:54:04.826Z,15.79
2023-04-25T14:56:51.891Z,15.78
2023-04-25T14:59:37.222Z,15.72
2023-04-25T15:02:22.965Z,15.65
2023-04-25T15:05:09.129Z,15.61
2023-04-25T15:07:54.548Z,15.57
2023-04-25T15:10:40.369Z,15.57
2023-04-25T15:13:26.636Z,15.55
2023-04-25T15:16:12.129Z,15.56
2023-04-25T15:18:58.418Z,15.52
2023-04-25T15:21:44.215Z,15.51
2023-04-25T15:24:31.056Z,15.45
2023-04-25T15:27:17.497Z,15.37
2023-04-25T15:30:04.112Z,15.25
2023-04-25T15:32:50.572Z,15.25
2023-04-25T15:35:36.768Z,15.23
2023-04-25T15:38:22.324Z,15.20
2023-04-25T15:41:07.811Z,15.23
2023-04-25T15:43:54.501Z,15.24
2023-04-25T15:46:40.580Z,15.20
2023-04-25T15:49:26.478Z,15.21
2023-04-25T15:52:12.029Z,15.22
2023-04-25T15:54:57.613Z,15.21
2023-04-25T15:57:43.329Z,15.22
2023-04-25T16:00:40.549Z,15.23
2023-04-25T16:03:27.932Z,15.32
2023-04-25T16:06:14.919Z,15.43
2023-04-25T16:09:00.969Z,15.45
2023-04-25T16:11:48.110Z,15.45
2023-04-25T16:14:35.630Z,15.41
2023-04-25T16:17:32.810Z,15.34
2023-04-25T16:20:18.181Z,15.31
2023-04-25T16:23:04.852Z,15.25
2023-04-25T16:25:58.368Z,15.25
2023-04-25T16:29:13.257Z,15.26
2023-04-25T16:32:16.402Z,15.21
2023-04-25T16:35:20.343Z,15.15
2023-04-25T16:38:17.570Z,15.08
2023-04-25T16:41:03.941Z,15.01
2023-04-25T16:43:49.884Z,14.97
2023-04-25T16:46:35.335Z,14.93
2023-04-25T16:49:20.993Z,14.83
2023-04-25T16:52:06.566Z,14.73
2023-04-25T16:58:08.718Z,14.51
2023-04-25T17:00:55.794Z,14.43
2023-04-25T17:03:44.670Z,14.42
2023-04-25T17:06:32.894Z,14.39
2023-04-25T17:09:29.260Z,14.39
2023-04-25T17:12:19.502Z,14.38
2023-04-25T17:15:06.524Z,14.41
2023-04-25T17:17:52.139Z,14.42
2023-04-25T17:20:38.048Z,14.42
2023-04-25T17:23:27.153Z,14.40
2023-04-25T17:26:13.003Z,14.40
2023-04-25T17:32:13.070Z,14.39
2023-04-25T17:35:06.006Z,14.42
2023-04-25T17:37:52.084Z,14.43
2023-04-25T17:40:43.757Z,14.43
2023-04-25T17:47:42.750Z,14.43
2023-04-25T17:50:54.272Z,14.48
2023-04-25T17:57:51.066Z,14.58
2023-04-25T18:04:23.647Z,14.66
2023-04-25T18:07:08.864Z,14.66
2023-04-25T18:09:54.352Z,14.66
2023-04-25T18:12:40.467Z,14.65
2023-04-25T18:15:26.587Z,14.63
2023-04-25T18:18:19.312Z,14.63
2023-04-25T18:21:07.166Z,14.65
2023-04-25T18:23:52.907Z,14.67
2023-04-25T18:26:39.940Z,14.69
2023-04-25T18:29:32.987Z,14.68
2023-04-25T18:32:19.935Z,14.69
2023-04-25T18:35:05.656Z,14.68
2023-04-25T18:41:42.163Z,14.62
2023-04-25T18:44:40.063Z,14.57
2023-04-25T18:47:28.564Z,14.53
2023-04-25T18:50:25.829Z,14.47
2023-04-25T18:53:37.893Z,14.39
2023-04-25T19:00:26.029Z,14.35
2023-04-25T19:03:11.967Z,14.27
2023-04-25T19:09:38.893Z,14.14
2023-04-25T19:12:25.622Z,14.10
2023-04-25T19:15:22.082Z,14.06
2023-04-25T19:22:08.275Z,13.90
2023-04-25T19:25:14.327Z,13.79
2023-04-25T19:28:16.120Z,13.71
2023-04-25T19:31:01.919Z,13.66
2023-04-25T19:34:04.650Z,13.67
2023-04-25T19:36:56.263Z,13.73
2023-04-25T19:40:23.353Z,13.81
2023-04-25T19:43:09.080Z,13.79
2023-04-25T19:45:55.095Z,13.79
2023-04-25T19:49:07.157Z,13.79
2023-04-25T19:58:36.507Z,13.92
2023-04-25T20:01:44.490Z,13.94
2023-04-25T20:04:30.964Z,13.96
2023-04-25T20:07:50.416Z,13.96
2023-04-25T20:10:36.802Z,13.95
2023-04-25T20:13:22.972Z,13.95
2023-04-25T20:16:08.421Z,13.95
2023-04-25T20:18:54.259Z,13.98
2023-04-25T20:21:40.066Z,14.05
2023-04-25T20:24:26.847Z,14.07
2023-04-25T20:27:12.168Z,14.07
2023-04-25T20:30:01.990Z,14.08
2023-04-25T20:32:47.586Z,14.10
2023-04-25T20:35:34.454Z,14.10
2023-04-25T20:45:20.746Z,14.18
2023-04-25T20:48:07.535Z,14.20
2023-04-25T20:58:00.227Z,14.28
2023-04-25T21:01:07.324Z,14.26
2023-04-25T21:04:06.619Z,14.24
2023-04-25T21:07:05.882Z,14.26
2023-04-25T21:09:51.384Z,14.27
2023-04-25T21:12:37.855Z,14.24
2023-04-25T21:15:24.360Z,14.22
2023-04-25T21:18:10.065Z,14.18
2023-04-25T21:20:57.583Z,14.11
2023-04-25T21:23:42.870Z,14.07
2023-04-25T21:26:28.984Z,14.07
2023-04-25T21:29:14.412Z,14.08
2023-04-25T21:32:01.575Z,14.09
2023-04-25T21:34:48.431Z,14.09
2023-04-25T21:37:34.390Z,14.07
2023-04-25T21:40:20.212Z,14.05
2023-04-25T21:43:06.023Z,14.03
2023-04-25T21:48:43.105Z,13.98
2023-04-25T21:51:28.752Z,14.00
2023-04-25T21:54:14.935Z,14.00
2023-04-25T21:57:00.407Z,14.01
2023-04-25T21:59:45.886Z,14.02
2023-04-25T22:02:32.049Z,14.04
2023-04-25T22:05:20.533Z,14.08
2023-04-25T22:08:05.950Z,14.11
2023-04-25T22:10:54.692Z,14.09
2023-04-25T22:13:40.037Z,14.07
2023-04-25T22:16:25.394Z,14.02
2023-04-25T22:19:10.942Z,14.03
2023-04-25T22:21:56.608Z,14.03
2023-04-25T22:24:41.902Z,14.02
2023-04-25T22:27:27.442Z,14.00
2023-04-25T22:30:13.609Z,13.97
2023-04-25T22:33:01.519Z,13.93
2023-04-25T22:35:47.435Z,13.92
2023-04-25T22:38:32.980Z,13.89
2023-04-25T22:41:19.048Z,13.88
2023-04-25T22:44:04.876Z,13.90
2023-04-25T22:46:50.449Z,13.91
2023-04-25T22:49:35.879Z,13.88
2023-04-25T22:52:21.555Z,13.83
2023-04-25T22:55:07.444Z,13.81
2023-04-25T22:57:52.746Z,13.79
2023-04-25T23:00:38.624Z,13.75
2023-04-25T23:03:24.214Z,13.76
2023-04-25T23:06:11.250Z,13.77
2023-04-25T23:08:57.291Z,13.79
2023-04-25T23:11:42.907Z,13.79
2023-04-25T23:14:28.893Z,13.77
2023-04-25T23:17:14.230Z,13.74
2023-04-25T23:19:59.862Z,13.74
2023-04-25T23:22:45.383Z,13.73
2023-04-25T23:25:32.101Z,13.72
2023-04-25T23:28:17.247Z,13.72
2023-04-25T23:31:06.577Z,13.71
2023-04-25T23:33:52.425Z,13.70
2023-04-25T23:36:38.589Z,13.68
2023-04-25T23:39:24.051Z,13.65
2023-04-25T23:42:09.427Z,13.61
2023-04-25T23:44:54.866Z,13.57
2023-04-25T23:47:40.262Z,13.55
2023-04-25T23:50:26.154Z,13.54
2023-04-25T23:53:11.213Z,13.56
2023-04-25T23:55:56.983Z,13.57
2023-04-25T23:58:42.340Z,13.53
